Time;durP1;ratioP1;P1;durP2;ratioP2;P2;SDS_P1;SDS_P2;PMS_P1;PMS_P2;Temp;Humidity;BMP_temperature;BMP_pressure;BME280_temperature;BME280_humidity;BME280_pressure;Samples;Min_cycle;Max_cycle;Signal;HPM_P1;HPM_P2
2023/10/06 00:01:00;;;;;;;1.35;0.60;;;17.20;99.90;;;;;;5070613;28;20036;-78
2023/10/06 00:03:26;;;;;;;0.60;0.40;;;17.20;99.90;;;;;;5052851;28;20028;-80
2023/10/06 00:05:53;;;;;;;0.50;0.50;;;17.20;99.90;;;;;;5070695;28;20102;-80
2023/10/06 00:08:20;;;;;;;1.90;0.63;;;17.20;99.90;;;;;;5070108;28;20494;-80
2023/10/06 00:10:51;;;;;;;0.60;0.52;;;17.20;99.90;;;;;;5070229;28;20069;-81
2023/10/06 00:13:28;;;;;;;1.15;0.40;;;17.20;99.90;;;;;;5070864;28;20032;-80
2023/10/06 00:15:55;;;;;;;0.65;0.43;;;17.20;99.90;;;;;;5070218;28;20028;-78
2023/10/06 00:18:23;;;;;;;0.60;0.40;;;17.20;99.90;;;;;;5069587;28;20082;-80
2023/10/06 00:20:50;;;;;;;1.02;0.32;;;17.20;99.90;;;;;;5070986;28;20032;-80
2023/10/06 00:23:21;;;;;;;0.80;0.50;;;17.30;99.90;;;;;;5052685;28;20098;-81
2023/10/06 00:25:47;;;;;;;1.27;0.50;;;17.20;99.90;;;;;;5070620;28;20032;-81
2023/10/06 00:28:22;;;;;;;2.05;0.95;;;17.20;99.90;;;;;;5070818;28;20021;-81
2023/10/06 00:30:58;;;;;;;1.17;0.70;;;17.20;99.90;;;;;;5070702;28;20478;-81
2023/10/06 00:33:32;;;;;;;3.40;0.77;;;17.20;99.90;;;;;;5070209;28;20356;-81
2023/10/06 00:36:11;;;;;;;1.02;0.50;;;17.20;99.90;;;;;;5070481;28;20040;-81
2023/10/06 00:38:37;;;;;;;1.30;0.70;;;17.20;99.90;;;;;;5069958;28;20039;-78
2023/10/06 00:41:07;;;;;;;1.23;0.63;;;17.20;99.90;;;;;;5070711;28;20029;-80
2023/10/06 00:43:35;;;;;;;1.27;0.68;;;17.20;99.90;;;;;;5069951;28;20033;-79
2023/10/06 00:46:06;;;;;;;1.73;0.43;;;17.20;99.90;;;;;;5070607;28;20463;-79
2023/10/06 00:48:44;;;;;;;0.83;0.57;;;17.20;99.90;;;;;;5069978;28;20025;-79
2023/10/06 00:51:19;;;;;;;0.90;0.50;;;17.10;99.90;;;;;;5070567;28;20356;-80
2023/10/06 00:53:57;;;;;;;1.48;0.60;;;17.20;99.90;;;;;;5070023;28;20029;-80
2023/10/06 00:56:25;;;;;;;4.50;0.73;;;17.10;99.90;;;;;;5069548;28;20100;-80
2023/10/06 00:58:52;;;;;;;0.90;0.50;;;17.20;99.90;;;;;;5070493;28;20396;-78
2023/10/06 01:01:18;;;;;;;1.27;0.52;;;17.10;99.90;;;;;;5070369;28;20025;-79
2023/10/06 01:03:54;;;;;;;0.70;0.38;;;17.10;99.90;;;;;;5069903;28;20424;-79
2023/10/06 01:06:23;;;;;;;1.92;0.68;;;17.20;99.90;;;;;;5070375;28;20463;-80
2023/10/06 01:09:05;;;;;;;1.92;0.52;;;17.20;99.90;;;;;;5069888;28;20119;-80
2023/10/06 01:11:50;;;;;;;2.78;0.90;;;17.20;99.90;;;;;;5069921;28;20021;-79
2023/10/06 01:14:27;;;;;;;1.33;0.60;;;17.20;99.90;;;;;;5070316;28;20037;-80
2023/10/06 01:17:04;;;;;;;2.20;0.82;;;17.20;99.90;;;;;;5070410;28;20108;-80
2023/10/06 01:19:33;;;;;;;0.65;0.52;;;17.20;99.90;;;;;;5069838;28;20112;-80
2023/10/06 01:22:20;;;;;;;1.05;0.80;;;17.20;99.90;;;;;;5070177;28;20056;-80
2023/10/06 01:24:46;;;;;;;1.75;0.75;;;17.20;99.90;;;;;;5069524;28;20360;-80
2023/10/06 01:27:12;;;;;;;1.55;0.60;;;17.20;99.90;;;;;;5051763;28;20514;-79
2023/10/06 01:29:38;;;;;;;1.33;0.68;;;17.30;99.90;;;;;;5069515;28;20044;-80
2023/10/06 01:32:05;;;;;;;1.13;0.70;;;17.30;99.90;;;;;;5069794;28;20494;-80
2023/10/06 01:34:38;;;;;;;0.50;0.35;;;17.30;99.90;;;;;;5069456;28;20028;-80
2023/10/06 01:37:09;;;;;;;1.88;0.60;;;17.40;99.90;;;;;;5070100;28;20056;-80
2023/10/06 01:39:36;;;;;;;1.88;0.57;;;17.40;99.90;;;;;;5069135;28;20028;-80
2023/10/06 01:42:09;;;;;;;1.20;0.50;;;17.40;99.90;;;;;;5069838;28;20486;-80
2023/10/06 01:44:35;;;;;;;0.65;0.50;;;17.40;99.90;;;;;;5069389;28;20154;-81
2023/10/06 01:47:05;;;;;;;1.30;0.40;;;17.30;99.90;;;;;;5051509;28;20173;-81
2023/10/06 01:49:33;;;;;;;0.73;0.40;;;17.30;99.90;;;;;;5068607;28;20067;-81
2023/10/06 01:52:02;;;;;;;3.10;0.50;;;17.30;99.90;;;;;;5069818;28;20403;-80
2023/10/06 01:54:34;;;;;;;1.52;0.70;;;17.30;99.90;;;;;;5069124;28;20039;-81
2023/10/06 01:57:04;;;;;;;0.82;0.50;;;17.30;99.90;;;;;;5069666;28;20024;-80
2023/10/06 01:59:30;;;;;;;0.68;0.50;;;17.20;99.90;;;;;;5068995;28;20035;-80
2023/10/06 02:02:00;;;;;;;0.70;0.40;;;17.20;99.90;;;;;;5069590;28;20125;-80
2023/10/06 02:04:26;;;;;;;1.05;0.55;;;17.20;99.90;;;;;;5069181;28;20032;-79
2023/10/06 02:06:52;;;;;;;1.35;0.70;;;17.20;99.90;;;;;;5069176;28;20038;-80
2023/10/06 02:09:18;;;;;;;0.65;0.52;;;17.30;99.90;;;;;;5071098;28;20028;-80
2023/10/06 02:11:51;;;;;;;1.65;0.68;;;17.20;99.90;;;;;;5072008;28;20471;-81
2023/10/06 02:14:17;;;;;;;3.00;0.85;;;17.20;99.90;;;;;;5072917;28;20375;-81
2023/10/06 02:16:44;;;;;;;1.23;0.40;;;17.30;99.90;;;;;;5072510;28;20028;-80
2023/10/06 02:19:10;;;;;;;2.63;0.70;;;17.20;99.90;;;;;;5073148;28;20023;-79
2023/10/06 02:21:45;;;;;;;1.75;0.82;;;17.20;99.90;;;;;;5072873;28;20029;-81
2023/10/06 02:24:12;;;;;;;1.48;0.80;;;17.20;99.90;;;;;;5055170;28;20089;-79
2023/10/06 02:26:38;;;;;;;2.20;0.85;;;17.20;99.90;;;;;;5072345;28;20687;-77
2023/10/06 02:29:16;;;;;;;1.52;0.68;;;17.20;99.90;;;;;;5073033;28;20029;-81
2023/10/06 02:31:42;;;;;;;0.80;0.65;;;17.10;99.90;;;;;;5072385;28;20024;-81
2023/10/06 02:34:14;;;;;;;1.05;0.80;;;17.10;99.90;;;;;;5072882;28;20033;-81
2023/10/06 02:36:41;;;;;;;1.55;0.93;;;17.10;99.90;;;;;;5054581;28;20054;-81
2023/10/06 02:39:09;;;;;;;2.55;0.68;;;17.10;99.90;;;;;;5054685;28;20378;-80
2023/10/06 02:41:34;;;;;;;0.63;0.60;;;17.10;99.90;;;;;;5054152;28;20502;-80
2023/10/06 02:44:13;;;;;;;3.35;0.90;;;17.10;99.90;;;;;;5072424;28;20066;-81
2023/10/06 02:46:39;;;;;;;2.38;0.77;;;17.10;99.90;;;;;;5071900;28;20036;-81
2023/10/06 02:49:07;;;;;;;1.85;0.88;;;17.10;99.90;;;;;;5072589;28;20063;-80
2023/10/06 02:51:33;;;;;;;2.15;0.98;;;17.20;99.90;;;;;;5072083;28;20159;-81
2023/10/06 02:54:45;;;;;;;1.45;0.73;;;17.20;99.90;;;;;;5072228;28;20076;-80
2023/10/06 02:56:50;;;;;;;2.15;0.82;;;17.30;99.90;;;;;;5060759;28;20532;-81
2023/10/06 02:59:26;;;;;;;1.45;0.63;;;17.30;99.90;;;;;;5072075;28;20114;-80
2023/10/06 03:02:32;;;;;;;1.63;0.60;;;17.30;99.90;;;;;;5071928;28;20108;-82
2023/10/06 03:04:55;;;;;;;2.10;0.55;;;17.40;99.90;;;;;;5067138;28;20493;-82
2023/10/06 03:07:22;;;;;;;2.80;0.70;;;17.40;99.90;;;;;;5072216;28;20020;-82
2023/10/06 03:09:48;;;;;;;0.70;0.45;;;17.40;99.90;;;;;;5071240;28;20541;-83
2023/10/06 03:14:58;;;;;;;2.17;0.80;;;17.50;99.90;;;;;;5071492;28;20032;-82
2023/10/06 03:17:24;;;;;;;1.40;0.70;;;17.50;99.90;;;;;;5072068;28;20035;-79
2023/10/06 03:20:10;;;;;;;1.30;0.63;;;17.50;99.90;;;;;;5071371;28;20025;-81
2023/10/06 03:22:40;;;;;;;2.65;0.60;;;17.40;99.90;;;;;;5071663;28;20399;-80
2023/10/06 03:25:18;;;;;;;1.58;0.80;;;17.50;99.90;;;;;;5072004;28;20113;-81
2023/10/06 03:27:53;;;;;;;0.77;0.50;;;17.50;99.90;;;;;;5053538;28;20044;-80
2023/10/06 03:30:28;;;;;;;1.08;0.55;;;17.40;99.90;;;;;;5071868;28;20035;-80
2023/10/06 03:32:54;;;;;;;1.00;0.68;;;17.40;99.90;;;;;;5071007;28;20032;-80
2023/10/06 03:35:37;;;;;;;1.80;0.85;;;17.50;99.90;;;;;;5072755;28;20491;-81
2023/10/06 03:38:27;;;;;;;2.25;0.70;;;17.40;99.90;;;;;;5072408;28;20059;-80
2023/10/06 03:46:04;;;;;;;1.70;0.70;;;17.50;99.90;;;;;;5072739;28;20131;-81
2023/10/06 03:48:31;;;;;;;1.08;0.60;;;17.40;99.90;;;;;;5073034;28;20103;-81
2023/10/06 03:50:57;;;;;;;0.43;0.40;;;17.40;99.90;;;;;;5072051;28;20131;-79
2023/10/06 03:53:29;;;;;;;1.52;0.70;;;17.50;99.90;;;;;;5071187;28;20111;-81
2023/10/06 03:55:57;;;;;;;2.67;0.63;;;17.50;99.90;;;;;;5070859;28;20032;-81
2023/10/06 03:58:29;;;;;;;0.73;0.65;;;17.50;99.90;;;;;;5071612;28;20134;-82
2023/10/06 04:00:55;;;;;;;1.38;0.68;;;17.50;99.90;;;;;;5070694;28;20021;-81
2023/10/06 04:03:21;;;;;;;1.48;0.70;;;17.50;99.90;;;;;;5071377;28;20054;-82
2023/10/06 04:05:48;;;;;;;2.17;0.60;;;17.50;99.90;;;;;;5070531;28;20032;-81
2023/10/06 04:08:16;;;;;;;1.45;0.60;;;17.50;99.90;;;;;;5070991;28;20024;-81
2023/10/06 04:10:48;;;;;;;1.38;0.60;;;17.50;99.90;;;;;;5070078;28;20390;-80
2023/10/06 04:13:17;;;;;;;1.58;0.77;;;17.50;99.90;;;;;;5070552;28;20474;-81
2023/10/06 04:15:48;;;;;;;1.38;0.50;;;17.60;99.90;;;;;;5070580;28;20036;-81
2023/10/06 04:18:17;;;;;;;1.03;0.60;;;17.50;99.90;;;;;;5071047;28;20032;-80
2023/10/06 04:20:44;;;;;;;2.22;0.90;;;17.50;99.90;;;;;;5070562;28;20032;-80
2023/10/06 04:23:17;;;;;;;1.02;0.40;;;17.50;99.90;;;;;;5070881;28;20028;-80
2023/10/06 04:25:44;;;;;;;1.48;0.82;;;17.50;99.90;;;;;;5070131;28;20044;-80
2023/10/06 04:28:14;;;;;;;1.15;0.57;;;17.60;99.90;;;;;;5070692;28;20025;-80
2023/10/06 04:30:44;;;;;;;3.50;0.70;;;17.50;99.90;;;;;;5069846;28;20396;-80
2023/10/06 04:33:14;;;;;;;2.10;0.93;;;17.50;99.90;;;;;;5070230;28;20028;-80
2023/10/06 04:38:40;;;;;;;;;;;17.50;99.90;;;;;;5070502;28;20062;-79
2023/10/06 04:41:10;;;;;;;2.72;0.77;;;17.50;99.90;;;;;;5070245;28;19905;-81
2023/10/06 04:43:36;;;;;;;2.63;0.80;;;17.60;99.90;;;;;;5069938;28;20039;-78
2023/10/06 04:46:05;;;;;;;4.00;0.82;;;17.60;99.90;;;;;;5069967;28;20044;-81
2023/10/06 04:48:32;;;;;;;1.05;0.90;;;17.60;99.90;;;;;;5070659;28;20020;-79
2023/10/06 04:50:58;;;;;;;4.90;1.10;;;17.60;99.90;;;;;;5069673;28;20397;-80
2023/10/06 04:53:23;;;;;;;2.92;1.10;;;17.60;99.90;;;;;;5070188;28;20462;-80
2023/10/06 04:55:51;;;;;;;1.98;0.90;;;17.60;99.90;;;;;;5069306;28;20108;-81
2023/10/06 04:58:18;;;;;;;3.17;0.90;;;17.60;99.90;;;;;;5069749;28;20033;-80
2023/10/06 05:00:53;;;;;;;2.85;1.20;;;17.50;99.90;;;;;;5069280;28;20430;-80
2023/10/06 05:03:19;;;;;;;3.17;1.45;;;17.50;99.90;;;;;;5070158;28;20305;-80
2023/10/06 05:05:45;;;;;;;3.08;0.90;;;17.60;99.90;;;;;;5069516;28;20198;-81
2023/10/06 05:08:14;;;;;;;2.65;1.10;;;17.50;99.90;;;;;;5070042;28;20185;-80
2023/10/06 05:10:40;;;;;;;4.40;1.20;;;17.50;99.90;;;;;;5050936;28;20371;-80
2023/10/06 05:13:07;;;;;;;3.03;1.25;;;17.50;99.90;;;;;;5069801;28;20032;-80
2023/10/06 05:15:40;;;;;;;4.22;1.02;;;17.50;99.90;;;;;;5069596;28;20033;-81
2023/10/06 05:18:06;;;;;;;5.07;1.42;;;17.50;99.90;;;;;;5069965;28;20024;-80
2023/10/06 05:20:33;;;;;;;3.17;1.17;;;17.50;99.90;;;;;;5069904;28;20540;-80
2023/10/06 05:23:34;;;;;;;2.58;1.20;;;17.40;99.90;;;;;;5069135;28;20115;-82
2023/10/06 05:25:52;;;;;;;6.65;1.25;;;17.40;99.90;;;;;;5064935;28;20059;-80
2023/10/06 05:28:18;;;;;;;5.65;1.20;;;17.40;99.90;;;;;;5070044;28;20029;-80
2023/10/06 05:30:44;;;;;;;3.47;1.25;;;17.40;99.90;;;;;;5069334;28;20050;-80
2023/10/06 05:33:11;;;;;;;1.25;0.80;;;17.40;99.90;;;;;;5069783;28;20125;-80
2023/10/06 05:35:41;;;;;;;4.28;1.45;;;17.40;99.90;;;;;;5052013;28;20024;-80
2023/10/06 05:38:13;;;;;;;3.90;1.15;;;17.40;99.90;;;;;;5070209;28;20031;-80
2023/10/06 05:40:44;;;;;;;6.13;1.20;;;17.40;99.90;;;;;;5052366;28;20032;-81
2023/10/06 05:43:15;;;;;;;5.97;1.13;;;17.40;99.90;;;;;;5071394;28;20028;-81
2023/10/06 05:45:42;;;;;;;1.90;0.98;;;17.40;99.90;;;;;;5073180;28;20035;-81
2023/10/06 05:48:16;;;;;;;4.63;1.52;;;17.40;99.90;;;;;;5073435;28;20447;-81
2023/10/06 05:50:43;;;;;;;3.38;1.35;;;17.40;99.90;;;;;;5055503;28;20098;-81
2023/10/06 05:53:12;;;;;;;2.20;1.45;;;17.40;99.90;;;;;;5073628;28;20051;-80
2023/10/06 05:55:41;;;;;;;4.07;1.20;;;17.40;99.90;;;;;;5073798;28;20036;-79
2023/10/06 05:58:19;;;;;;;2.58;1.20;;;17.40;99.90;;;;;;5073747;28;20082;-80
2023/10/06 06:00:55;;;;;;;4.40;1.38;;;17.50;99.90;;;;;;5073109;28;20042;-81
2023/10/06 06:03:23;;;;;;;4.57;1.50;;;17.40;99.90;;;;;;5073829;28;20158;-81
2023/10/06 06:05:49;;;;;;;4.50;1.40;;;17.40;99.90;;;;;;5072805;28;20031;-81
2023/10/06 06:08:15;;;;;;;2.83;1.45;;;17.40;99.90;;;;;;5073376;28;20187;-81
2023/10/06 06:10:41;;;;;;;4.68;1.90;;;17.40;99.90;;;;;;5055276;28;20458;-81
2023/10/06 06:13:07;;;;;;;5.10;1.45;;;17.50;99.90;;;;;;5054959;28;20060;-81
2023/10/06 06:15:35;;;;;;;4.07;1.30;;;17.50;99.90;;;;;;5072920;28;20036;-81
2023/10/06 06:18:01;;;;;;;2.47;1.30;;;17.50;99.90;;;;;;5072840;28;20244;-81
2023/10/06 06:20:30;;;;;;;3.53;1.80;;;17.50;99.90;;;;;;5055516;28;20031;-81
2023/10/06 06:22:59;;;;;;;2.35;1.10;;;17.50;99.90;;;;;;5072529;28;20157;-81
2023/10/06 06:25:26;;;;;;;2.60;1.10;;;17.50;99.90;;;;;;5072884;28;20082;-81
2023/10/06 06:27:54;;;;;;;2.00;1.00;;;17.50;99.90;;;;;;5072590;28;20142;-81
2023/10/06 06:30:24;;;;;;;3.42;1.10;;;17.50;99.90;;;;;;5073156;28;20028;-81
2023/10/06 06:32:50;;;;;;;1.45;1.10;;;17.60;99.90;;;;;;5072140;28;20039;-81
2023/10/06 06:35:24;;;;;;;2.55;1.30;;;17.60;99.90;;;;;;5072899;28;20174;-79
2023/10/06 06:37:51;;;;;;;4.65;1.50;;;17.70;99.90;;;;;;5072170;28;20025;-80
2023/10/06 06:40:20;;;;;;;3.72;1.63;;;17.70;99.90;;;;;;5072848;28;20052;-80
2023/10/06 06:42:47;;;;;;;2.92;1.20;;;17.60;99.90;;;;;;5053954;28;20150;-80
2023/10/06 06:45:13;;;;;;;4.50;1.80;;;17.60;99.90;;;;;;5072701;28;20347;-80
2023/10/06 06:47:41;;;;;;;4.03;1.50;;;17.70;99.90;;;;;;5072309;28;20036;-80
2023/10/06 06:50:17;;;;;;;7.03;1.70;;;17.70;99.90;;;;;;5072074;28;20131;-80
2023/10/06 06:52:44;;;;;;;8.73;1.88;;;17.60;99.90;;;;;;5072086;28;20108;-79
2023/10/06 06:55:14;;;;;;;6.00;2.00;;;17.70;99.90;;;;;;5071237;28;20032;-80
2023/10/06 06:57:49;;;;;;;4.82;2.03;;;17.70;99.90;;;;;;5072137;28;20036;-79
2023/10/06 07:00:15;;;;;;;4.05;2.03;;;17.70;99.90;;;;;;5072423;28;20026;-79
2023/10/06 07:02:51;;;;;;;7.70;2.55;;;17.70;99.90;;;;;;5071901;28;20413;-79
2023/10/06 07:05:19;;;;;;;6.15;2.35;;;17.70;99.90;;;;;;5072362;28;20087;-80
2023/10/06 07:07:45;;;;;;;5.40;2.40;;;17.70;99.90;;;;;;5071939;28;20436;-80
2023/10/06 07:10:19;;;;;;;6.10;2.22;;;17.70;99.90;;;;;;5072008;28;20028;-79
2023/10/06 07:12:47;;;;;;;7.40;2.78;;;17.70;99.90;;;;;;5072062;28;20024;-79
2023/10/06 07:15:17;;;;;;;5.65;2.28;;;17.80;99.90;;;;;;5071879;28;20451;-80
2023/10/06 07:17:48;;;;;;;5.47;2.20;;;17.80;99.90;;;;;;5071910;28;20029;-80
2023/10/06 07:20:26;;;;;;;6.95;2.22;;;17.80;99.90;;;;;;5072308;28;20178;-80
2023/10/06 07:22:53;;;;;;;8.70;2.85;;;17.80;99.90;;;;;;5071896;28;20055;-80
2023/10/06 07:25:19;;;;;;;6.75;2.75;;;17.80;99.90;;;;;;5072056;28;20447;-81
2023/10/06 07:27:47;;;;;;;10.43;2.60;;;17.80;99.90;;;;;;5071879;28;20417;-81
2023/10/06 07:30:16;;;;;;;6.88;2.80;;;17.80;99.90;;;;;;5071624;28;20035;-81
2023/10/06 07:32:45;;;;;;;6.65;2.75;;;17.90;99.90;;;;;;5071631;28;20447;-79
2023/10/06 07:35:15;;;;;;;8.05;2.72;;;17.90;99.90;;;;;;5073233;28;20479;-81
2023/10/06 07:37:43;;;;;;;7.00;2.53;;;17.90;99.90;;;;;;5071471;28;20466;-81
2023/10/06 07:40:18;;;;;;;6.10;2.67;;;17.90;99.90;;;;;;5071042;28;20135;-79
2023/10/06 07:42:51;;;;;;;5.55;2.50;;;17.90;99.90;;;;;;5072110;28;20028;-80
2023/10/06 07:45:18;;;;;;;5.18;2.13;;;17.90;99.90;;;;;;5053118;28;20056;-80
2023/10/06 07:47:45;;;;;;;6.15;2.58;;;18.00;99.90;;;;;;5071275;28;20031;-79
2023/10/06 07:50:13;;;;;;;5.85;2.30;;;18.00;99.90;;;;;;5070770;28;20055;-80
2023/10/06 07:52:43;;;;;;;5.68;2.17;;;18.10;99.90;;;;;;5071112;28;20024;-79
2023/10/06 07:55:10;;;;;;;7.40;2.55;;;18.00;99.90;;;;;;5053183;28;20032;-81
2023/10/06 07:57:40;;;;;;;7.03;2.60;;;18.00;99.90;;;;;;5070972;28;20024;-80
2023/10/06 08:00:08;;;;;;;6.03;2.83;;;18.10;99.90;;;;;;5070764;28;20028;-80
2023/10/06 08:02:36;;;;;;;8.23;2.45;;;18.10;99.90;;;;;;5053479;28;20459;-80
2023/10/06 08:05:03;;;;;;;4.07;2.10;;;18.10;99.90;;;;;;5071259;28;20038;-81
2023/10/06 08:07:30;;;;;;;6.20;2.72;;;18.10;99.90;;;;;;5070355;28;20364;-81
2023/10/06 08:10:00;;;;;;;7.18;2.72;;;18.10;99.90;;;;;;5053514;28;20046;-79
2023/10/06 08:12:30;;;;;;;7.75;2.15;;;18.10;99.90;;;;;;5071303;28;20528;-80
2023/10/06 08:14:55;;;;;;;6.10;2.25;;;18.10;99.90;;;;;;5070797;28;20047;-79
2023/10/06 08:17:21;;;;;;;6.95;2.10;;;18.20;99.90;;;;;;5070974;28;20024;-81
2023/10/06 08:19:47;;;;;;;7.68;2.20;;;18.20;99.90;;;;;;5053035;28;20024;-80
2023/10/06 08:22:14;;;;;;;6.35;1.75;;;18.30;99.90;;;;;;5070283;28;20426;-81
2023/10/06 08:24:40;;;;;;;8.85;2.17;;;18.30;99.90;;;;;;5052789;28;20028;-81
2023/10/06 08:27:07;;;;;;;8.13;2.08;;;18.30;99.90;;;;;;5070091;28;20478;-80
2023/10/06 08:29:33;;;;;;;9.93;2.20;;;18.30;99.90;;;;;;5070305;28;20032;-81
2023/10/06 08:31:59;;;;;;;7.72;1.98;;;18.30;99.90;;;;;;5069839;28;20027;-80
2023/10/06 08:34:27;;;;;;;3.10;1.65;;;18.40;99.90;;;;;;5070744;28;20451;-80
2023/10/06 08:36:53;;;;;;;12.20;3.00;;;18.40;99.90;;;;;;5051780;28;20029;-80
2023/10/06 08:39:20;;;;;;;15.43;2.85;;;18.40;99.90;;;;;;5070536;28;20118;-80
2023/10/06 08:41:51;;;;;;;7.35;2.55;;;18.50;99.90;;;;;;5052284;28;20390;-82
2023/10/06 08:44:19;;;;;;;17.45;3.22;;;18.50;99.90;;;;;;5069997;28;20032;-80
2023/10/06 08:46:47;;;;;;;4.20;1.98;;;18.60;99.90;;;;;;5070187;28;20467;-80
2023/10/06 08:49:19;;;;;;;6.00;2.08;;;18.60;99.90;;;;;;5069432;28;20047;-80
2023/10/06 08:51:50;;;;;;;4.40;1.90;;;18.70;99.90;;;;;;5070284;28;20428;-80
2023/10/06 08:54:18;;;;;;;3.58;1.80;;;18.70;99.90;;;;;;5069921;28;20033;-81
2023/10/06 08:56:44;;;;;;;3.25;1.60;;;18.70;99.90;;;;;;5070044;28;20052;-80
2023/10/06 08:59:15;;;;;;;5.72;1.63;;;18.80;99.90;;;;;;5069708;28;20385;-81
2023/10/06 09:01:43;;;;;;;6.30;1.80;;;18.80;99.90;;;;;;5070336;28;20478;-82
2023/10/06 09:04:09;;;;;;;4.72;1.50;;;18.80;99.90;;;;;;5069883;28;20115;-80
2023/10/06 09:06:38;;;;;;;4.78;1.67;;;18.80;99.90;;;;;;5065473;28;20049;-82
2023/10/06 09:09:05;;;;;;;11.43;1.95;;;18.90;99.90;;;;;;5069428;28;20029;-79
2023/10/06 09:11:41;;;;;;;6.03;1.73;;;18.90;99.90;;;;;;5070129;28;20097;-80
2023/10/06 09:14:11;;;;;;;5.95;2.15;;;19.00;99.90;;;;;;5069451;28;20072;-78
2023/10/06 09:16:50;;;;;;;5.28;1.90;;;19.00;99.90;;;;;;5070308;28;20377;-80
2023/10/06 09:19:16;;;;;;;5.55;1.50;;;19.00;99.90;;;;;;5072627;28;20032;-79
2023/10/06 09:22:01;;;;;;;7.30;1.90;;;18.90;99.90;;;;;;5074718;28;20032;-81
2023/10/06 09:24:27;;;;;;;2.95;1.50;;;18.90;99.90;;;;;;5075010;28;20029;-80
2023/10/06 09:26:55;;;;;;;3.60;1.85;;;18.90;99.90;;;;;;5056717;28;20051;-81
2023/10/06 09:29:36;;;;;;;5.32;1.67;;;19.00;99.90;;;;;;5074605;28;20028;-80
2023/10/06 09:32:20;;;;;;;4.35;1.35;;;19.00;99.90;;;;;;5073850;28;20374;-80
2023/10/06 09:34:46;;;;;;;6.60;1.35;;;19.00;99.90;;;;;;5073693;28;20029;-80
2023/10/06 09:37:19;;;;;;;7.30;1.90;;;19.10;99.90;;;;;;5073191;28;20036;-80
2023/10/06 09:39:45;;;;;;;;;;;19.20;99.90;;;;;;5074351;28;20032;-80
2023/10/06 09:42:14;;;;;;;2.25;1.30;;;19.30;99.90;;;;;;5073461;28;19996;-79
2023/10/06 09:44:44;;;;;;;5.03;1.67;;;19.40;99.90;;;;;;5074062;28;20032;-79
2023/10/06 09:47:11;;;;;;;4.50;1.65;;;19.40;99.90;;;;;;5073595;28;20064;-80
2023/10/06 09:49:38;;;;;;;4.43;1.38;;;19.40;99.90;;;;;;5073281;28;20052;-78
2023/10/06 09:52:05;;;;;;;3.85;1.25;;;19.40;99.90;;;;;;5073171;28;20028;-80
2023/10/06 09:54:32;;;;;;;4.65;1.80;;;19.60;99.90;;;;;;5073339;28;20040;-80
2023/10/06 09:56:59;;;;;;;2.03;1.20;;;19.60;99.90;;;;;;5072884;28;20090;-80
2023/10/06 09:59:26;;;;;;;2.95;1.30;;;19.70;99.90;;;;;;5073660;28;20405;-80
2023/10/06 10:01:53;;;;;;;4.18;1.50;;;19.70;99.90;;;;;;5073693;28;20052;-79
2023/10/06 10:04:20;;;;;;;6.30;1.42;;;19.70;99.90;;;;;;5072974;28;20033;-79
2023/10/06 10:06:46;;;;;;;2.80;1.27;;;19.70;99.90;;;;;;5056169;28;20351;-80
2023/10/06 10:09:16;;;;;;;6.18;1.30;;;19.60;99.90;;;;;;5054329;28;20028;-80
2023/10/06 10:11:48;;;;;;;4.47;1.83;;;19.60;99.90;;;;;;5073826;28;20039;-81
2023/10/06 10:14:42;;;;;;;5.15;1.65;;;19.60;99.90;;;;;;5072857;28;20150;-81
2023/10/06 10:17:29;;;;;;;4.00;1.40;;;19.50;99.90;;;;;;5073439;28;20060;-80
2023/10/06 10:19:55;;;;;;;3.25;1.20;;;19.50;99.90;;;;;;5074113;28;20123;-79
2023/10/06 10:22:21;;;;;;;4.82;1.40;;;19.50;99.90;;;;;;5072876;28;20052;-79
2023/10/06 10:24:47;;;;;;;5.50;1.20;;;19.50;99.90;;;;;;5073638;28;20387;-80
2023/10/06 10:27:14;;;;;;;6.80;1.20;;;19.40;99.90;;;;;;5073064;28;20108;-78
2023/10/06 10:29:41;;;;;;;3.97;1.30;;;19.40;99.90;;;;;;5072337;28;20051;-80
2023/10/06 10:32:23;;;;;;;4.18;1.17;;;19.50;99.90;;;;;;5073284;28;20070;-80
2023/10/06 10:35:15;;;;;;;2.55;1.40;;;19.50;99.90;;;;;;5073184;28;20029;-81
2023/10/06 10:38:02;;;;;;;4.68;1.50;;;19.50;99.90;;;;;;5055110;28;20029;-78
2023/10/06 10:40:46;;;;;;;1.50;0.95;;;19.50;99.90;;;;;;5072457;28;20141;-79
2023/10/06 10:43:14;;;;;;;3.65;1.40;;;19.50;99.90;;;;;;5072572;28;20032;-80
2023/10/06 10:45:44;;;;;;;3.22;1.30;;;19.50;99.90;;;;;;5072610;28;20035;-80
2023/10/06 10:48:15;;;;;;;3.97;1.38;;;19.50;99.90;;;;;;5072274;28;20024;-80
2023/10/06 10:51:06;;;;;;;3.25;1.40;;;19.60;99.90;;;;;;5071962;28;20068;-80
2023/10/06 10:53:35;;;;;;;4.43;1.23;;;19.60;99.90;;;;;;5072419;28;20108;-80
2023/10/06 10:56:01;;;;;;;3.55;1.25;;;19.70;99.90;;;;;;5072182;28;20074;-79
2023/10/06 10:58:50;;;;;;;2.38;0.85;;;19.70;99.90;;;;;;5072571;28;20123;-82
2023/10/06 11:01:38;;;;;;;4.57;1.35;;;19.80;99.90;;;;;;5058660;28;20123;-79
2023/10/06 11:04:18;;;;;;;3.70;1.40;;;19.80;99.90;;;;;;5053911;28;20040;-79
2023/10/06 11:06:48;;;;;;;4.55;1.25;;;19.80;99.90;;;;;;5072655;28;20394;-80
2023/10/06 11:09:30;;;;;;;5.40;1.17;;;19.80;99.90;;;;;;5071699;28;20060;-79
2023/10/06 11:12:04;;;;;;;4.82;1.17;;;19.90;99.90;;;;;;5072006;28;20029;-81
2023/10/06 11:14:31;;;;;;;4.82;1.20;;;19.90;99.90;;;;;;5053605;28;20052;-80
2023/10/06 11:17:05;;;;;;;5.47;1.40;;;19.90;99.90;;;;;;5071887;28;20081;-80
2023/10/06 11:19:32;;;;;;;3.05;1.27;;;19.90;99.90;;;;;;5072265;28;20487;-80
2023/10/06 11:22:22;;;;;;;4.55;0.95;;;20.00;99.90;;;;;;5072149;28;20032;-80
2023/10/06 11:24:57;;;;;;;2.65;0.95;;;20.00;99.90;;;;;;5072210;28;20039;-80
2023/10/06 11:27:23;;;;;;;3.65;1.30;;;20.10;99.90;;;;;;5071599;28;20573;-81
2023/10/06 11:29:53;;;;;;;3.05;1.00;;;20.10;99.90;;;;;;5071800;28;20028;-81
2023/10/06 11:32:21;;;;;;;8.98;1.60;;;20.20;99.90;;;;;;5071656;28;20278;-80
2023/10/06 11:34:51;;;;;;;3.38;1.08;;;20.20;99.90;;;;;;5071551;28;20051;-81
2023/10/06 11:37:24;;;;;;;4.60;1.20;;;20.20;99.90;;;;;;5071477;28;20467;-81
2023/10/06 11:39:54;;;;;;;3.65;1.38;;;20.20;99.90;;;;;;5071520;28;20103;-81
2023/10/06 11:42:47;;;;;;;1.85;1.05;;;20.20;99.90;;;;;;5070967;28;20050;-80
2023/10/06 11:45:30;;;;;;;4.07;1.17;;;20.20;99.90;;;;;;5071070;28;20378;-81
2023/10/06 11:47:57;;;;;;;5.13;1.05;;;20.20;99.90;;;;;;5072037;28;20450;-81
2023/10/06 11:50:32;;;;;;;4.05;1.45;;;20.30;99.90;;;;;;5070545;28;20660;-81
2023/10/06 11:53:01;;;;;;;4.85;1.10;;;20.30;99.90;;;;;;5071716;28;20432;-80
2023/10/06 11:55:32;;;;;;;4.13;1.33;;;20.30;99.90;;;;;;5071041;28;20103;-81
2023/10/06 11:58:01;;;;;;;2.78;1.02;;;20.30;99.90;;;;;;5070980;28;20064;-81
2023/10/06 12:00:35;;;;;;;4.00;1.30;;;20.30;99.90;;;;;;5070918;28;20086;-81
2023/10/06 12:03:01;;;;;;;7.00;1.30;;;20.30;99.90;;;;;;5071505;28;20389;-81
2023/10/06 12:05:27;;;;;;;2.55;1.27;;;20.30;99.90;;;;;;5070589;28;20112;-81
2023/10/06 12:08:05;;;;;;;4.28;1.58;;;20.40;99.90;;;;;;5071048;28;20406;-81
2023/10/06 12:10:35;;;;;;;7.70;1.50;;;20.50;99.90;;;;;;5071337;28;20051;-81
2023/10/06 12:13:05;;;;;;;5.93;1.25;;;20.40;99.90;;;;;;5070024;28;20082;-81
2023/10/06 12:15:31;;;;;;;3.55;1.00;;;20.50;99.90;;;;;;5071030;28;20051;-81
2023/10/06 12:17:57;;;;;;;3.70;1.20;;;20.40;99.90;;;;;;5072740;28;20082;-80
2023/10/06 12:20:24;;;;;;;3.92;1.30;;;20.40;99.90;;;;;;5069826;28;20031;-80
2023/10/06 12:22:50;;;;;;;6.88;1.25;;;20.40;99.90;;;;;;5071173;28;20016;-80
2023/10/06 12:25:16;;;;;;;3.47;1.42;;;20.50;99.90;;;;;;5052403;28;20028;-80
2023/10/06 12:27:47;;;;;;;3.10;1.30;;;20.60;99.90;;;;;;5071545;28;20379;-79
2023/10/06 12:30:14;;;;;;;4.13;1.20;;;20.60;99.90;;;;;;5070278;28;20031;-80
2023/10/06 12:32:41;;;;;;;4.25;1.50;;;20.70;99.90;;;;;;5070964;28;20039;-79
2023/10/06 12:35:08;;;;;;;4.13;1.27;;;20.70;99.90;;;;;;5052050;28;20032;-80
2023/10/06 12:37:40;;;;;;;1.65;1.20;;;20.80;99.90;;;;;;5070828;28;20029;-81
2023/10/06 12:40:11;;;;;;;1.93;1.00;;;20.90;99.90;;;;;;5070633;28;20024;-80
2023/10/06 12:42:38;;;;;;;3.28;1.33;;;21.00;99.90;;;;;;5071096;28;20332;-81
2023/10/06 12:45:08;;;;;;;2.72;1.33;;;21.00;99.90;;;;;;5070978;28;20082;-82
2023/10/06 12:47:34;;;;;;;2.55;1.23;;;21.20;99.90;;;;;;5070809;28;20031;-81
2023/10/06 12:50:05;;;;;;;5.72;1.45;;;21.20;99.90;;;;;;5070266;28;20078;-81
2023/10/06 12:52:37;;;;;;;3.00;1.00;;;21.30;99.90;;;;;;5069555;28;20025;-80
2023/10/06 12:55:12;;;;;;;6.55;1.33;;;21.30;99.90;;;;;;5070790;28;20032;-81
2023/10/06 12:57:40;;;;;;;4.63;1.42;;;21.20;99.90;;;;;;5052531;28;20372;-81
2023/10/06 13:00:10;;;;;;;5.45;1.30;;;21.20;99.90;;;;;;5070154;28;20166;-80
2023/10/06 13:02:36;;;;;;;4.10;1.25;;;21.20;99.90;;;;;;5069403;28;20086;-80
2023/10/06 13:05:22;;;;;;;5.07;1.48;;;21.00;99.90;;;;;;5069629;28;20032;-81
2023/10/06 13:07:48;;;;;;;1.88;1.00;;;21.00;99.90;;;;;;5069502;28;20455;-80
2023/10/06 13:10:16;;;;;;;2.33;1.35;;;21.00;99.90;;;;;;5068165;28;20047;-81
2023/10/06 13:12:43;;;;;;;2.63;1.00;;;21.00;99.90;;;;;;5038490;28;20097;-80
2023/10/06 13:15:12;;;;;;;3.65;1.30;;;21.00;99.90;;;;;;5033527;28;20048;-80